sensor_id;sensor_type;location;lat;lon;timestamp;P1;durP1;ratioP1;P2;durP2;ratioP2
58338;SDS011;48278;52.704;6.536;2023-03-03T00:01:21;85.88;;;19.85;;
58338;SDS011;48278;52.704;6.536;2023-03-03T00:03:50;85.30;;;19.63;;
58338;SDS011;48278;52.704;6.536;2023-03-03T00:06:16;82.85;;;19.38;;
58338;SDS011;48278;52.704;6.536;2023-03-03T00:08:42;77.18;;;19.33;;
58338;SDS011;48278;52.704;6.536;2023-03-03T00:11:08;89.72;;;20.35;;
58338;SDS011;48278;52.704;6.536;2023-03-03T00:13:43;84.80;;;21.38;;
58338;SDS011;48278;52.704;6.536;2023-03-03T00:16:10;80.65;;;18.02;;
58338;SDS011;48278;52.704;6.536;2023-03-03T00:18:52;73.70;;;17.63;;
58338;SDS011;48278;52.704;6.536;2023-03-03T00:26:37;95.03;;;22.63;;
58338;SDS011;48278;52.704;6.536;2023-03-03T00:29:23;82.72;;;18.65;;
58338;SDS011;48278;52.704;6.536;2023-03-03T00:34:39;83.22;;;19.30;;
58338;SDS011;48278;52.704;6.536;2023-03-03T00:37:21;83.32;;;18.52;;
58338;SDS011;48278;52.704;6.536;2023-03-03T00:39:57;93.05;;;20.70;;
58338;SDS011;48278;52.704;6.536;2023-03-03T00:42:35;78.95;;;18.40;;
58338;SDS011;48278;52.704;6.536;2023-03-03T00:45:04;77.85;;;17.95;;
58338;SDS011;48278;52.704;6.536;2023-03-03T00:47:46;79.45;;;18.63;;
58338;SDS011;48278;52.704;6.536;2023-03-03T00:50:34;84.45;;;19.58;;
58338;SDS011;48278;52.704;6.536;2023-03-03T00:55:31;72.93;;;17.70;;
58338;SDS011;48278;52.704;6.536;2023-03-03T00:57:57;90.72;;;20.98;;
58338;SDS011;48278;52.704;6.536;2023-03-03T01:00:23;92.95;;;24.73;;
58338;SDS011;48278;52.704;6.536;2023-03-03T01:02:49;90.63;;;20.00;;
58338;SDS011;48278;52.704;6.536;2023-03-03T01:05:16;95.28;;;20.73;;
58338;SDS011;48278;52.704;6.536;2023-03-03T01:07:43;84.97;;;18.63;;
58338;SDS011;48278;52.704;6.536;2023-03-03T01:10:09;76.03;;;18.20;;
58338;SDS011;48278;52.704;6.536;2023-03-03T01:12:35;80.20;;;19.17;;
58338;SDS011;48278;52.704;6.536;2023-03-03T01:17:32;79.32;;;17.98;;
58338;SDS011;48278;52.704;6.536;2023-03-03T01:19:58;87.90;;;20.23;;
58338;SDS011;48278;52.704;6.536;2023-03-03T01:22:24;73.00;;;14.98;;
58338;SDS011;48278;52.704;6.536;2023-03-03T01:24:50;74.75;;;17.13;;
58338;SDS011;48278;52.704;6.536;2023-03-03T01:27:16;85.93;;;18.20;;
58338;SDS011;48278;52.704;6.536;2023-03-03T01:29:42;76.78;;;16.55;;
58338;SDS011;48278;52.704;6.536;2023-03-03T01:32:07;65.85;;;16.50;;
58338;SDS011;48278;52.704;6.536;2023-03-03T01:34:33;67.10;;;14.48;;
58338;SDS011;48278;52.704;6.536;2023-03-03T01:36:59;61.95;;;14.15;;
58338;SDS011;48278;52.704;6.536;2023-03-03T01:39:25;64.82;;;14.70;;
58338;SDS011;48278;52.704;6.536;2023-03-03T01:41:51;61.60;;;13.15;;
58338;SDS011;48278;52.704;6.536;2023-03-03T01:44:17;72.30;;;14.77;;
58338;SDS011;48278;52.704;6.536;2023-03-03T01:47:01;61.00;;;14.50;;
58338;SDS011;48278;52.704;6.536;2023-03-03T01:49:43;62.47;;;13.63;;
58338;SDS011;48278;52.704;6.536;2023-03-03T01:55:01;76.10;;;16.58;;
58338;SDS011;48278;52.704;6.536;2023-03-03T01:57:35;73.03;;;14.88;;
58338;SDS011;48278;52.704;6.536;2023-03-03T02:00:04;65.32;;;14.95;;
58338;SDS011;48278;52.704;6.536;2023-03-03T02:02:31;63.80;;;13.93;;
58338;SDS011;48278;52.704;6.536;2023-03-03T02:04:57;64.00;;;14.43;;
58338;SDS011;48278;52.704;6.536;2023-03-03T02:07:23;83.10;;;15.60;;
58338;SDS011;48278;52.704;6.536;2023-03-03T02:09:54;76.80;;;14.90;;
58338;SDS011;48278;52.704;6.536;2023-03-03T02:12:35;74.93;;;14.25;;
58338;SDS011;48278;52.704;6.536;2023-03-03T02:15:25;100.65;;;17.60;;
58338;SDS011;48278;52.704;6.536;2023-03-03T02:17:52;106.82;;;17.10;;
58338;SDS011;48278;52.704;6.536;2023-03-03T02:28:21;97.45;;;18.75;;
58338;SDS011;48278;52.704;6.536;2023-03-03T02:30:49;89.43;;;16.63;;
58338;SDS011;48278;52.704;6.536;2023-03-03T02:33:18;138.88;;;20.83;;
58338;SDS011;48278;52.704;6.536;2023-03-03T02:35:43;138.98;;;21.65;;
58338;SDS011;48278;52.704;6.536;2023-03-03T02:38:27;121.28;;;21.33;;
58338;SDS011;48278;52.704;6.536;2023-03-03T02:43:56;110.68;;;18.88;;
58338;SDS011;48278;52.704;6.536;2023-03-03T02:46:30;177.90;;;23.15;;
58338;SDS011;48278;52.704;6.536;2023-03-03T02:48:58;115.10;;;17.80;;
58338;SDS011;48278;52.704;6.536;2023-03-03T02:51:24;195.13;;;25.23;;
58338;SDS011;48278;52.704;6.536;2023-03-03T02:53:50;167.75;;;21.25;;
58338;SDS011;48278;52.704;6.536;2023-03-03T02:56:16;136.45;;;19.80;;
58338;SDS011;48278;52.704;6.536;2023-03-03T02:58:42;156.10;;;21.80;;
58338;SDS011;48278;52.704;6.536;2023-03-03T03:01:08;157.40;;;21.65;;
58338;SDS011;48278;52.704;6.536;2023-03-03T03:03:33;194.32;;;23.50;;
58338;SDS011;48278;52.704;6.536;2023-03-03T03:05:59;137.25;;;25.38;;
58338;SDS011;48278;52.704;6.536;2023-03-03T03:08:25;142.18;;;20.08;;
58338;SDS011;48278;52.704;6.536;2023-03-03T03:10:50;125.05;;;18.58;;
58338;SDS011;48278;52.704;6.536;2023-03-03T03:13:16;228.30;;;24.30;;
58338;SDS011;48278;52.704;6.536;2023-03-03T03:15:44;173.40;;;21.25;;
58338;SDS011;48278;52.704;6.536;2023-03-03T03:18:11;129.38;;;21.05;;
58338;SDS011;48278;52.704;6.536;2023-03-03T03:20:37;221.55;;;25.13;;
58338;SDS011;48278;52.704;6.536;2023-03-03T03:23:04;150.10;;;23.13;;
58338;SDS011;48278;52.704;6.536;2023-03-03T03:25:30;142.73;;;19.25;;
58338;SDS011;48278;52.704;6.536;2023-03-03T03:27:56;167.65;;;24.33;;
58338;SDS011;48278;52.704;6.536;2023-03-03T03:30:22;145.40;;;21.55;;
58338;SDS011;48278;52.704;6.536;2023-03-03T03:32:47;121.88;;;17.83;;
58338;SDS011;48278;52.704;6.536;2023-03-03T03:35:13;201.60;;;22.70;;
58338;SDS011;48278;52.704;6.536;2023-03-03T03:37:41;276.17;;;24.83;;
58338;SDS011;48278;52.704;6.536;2023-03-03T03:40:07;148.82;;;22.70;;
58338;SDS011;48278;52.704;6.536;2023-03-03T03:42:33;172.52;;;22.85;;
58338;SDS011;48278;52.704;6.536;2023-03-03T03:44:59;166.02;;;21.38;;
58338;SDS011;48278;52.704;6.536;2023-03-03T03:47:25;161.23;;;22.85;;
58338;SDS011;48278;52.704;6.536;2023-03-03T03:49:50;175.00;;;22.73;;
58338;SDS011;48278;52.704;6.536;2023-03-03T03:52:16;159.43;;;22.05;;
58338;SDS011;48278;52.704;6.536;2023-03-03T03:54:42;178.50;;;22.77;;
58338;SDS011;48278;52.704;6.536;2023-03-03T03:57:08;173.27;;;21.92;;
58338;SDS011;48278;52.704;6.536;2023-03-03T03:59:33;190.73;;;24.00;;
58338;SDS011;48278;52.704;6.536;2023-03-03T04:01:59;389.42;;;28.15;;
58338;SDS011;48278;52.704;6.536;2023-03-03T04:04:25;260.85;;;28.50;;
58338;SDS011;48278;52.704;6.536;2023-03-03T04:06:51;177.50;;;22.77;;
58338;SDS011;48278;52.704;6.536;2023-03-03T04:09:16;204.10;;;25.52;;
58338;SDS011;48278;52.704;6.536;2023-03-03T04:11:42;179.18;;;22.23;;
58338;SDS011;48278;52.704;6.536;2023-03-03T04:14:08;135.80;;;22.40;;
58338;SDS011;48278;52.704;6.536;2023-03-03T04:16:33;164.55;;;20.58;;
58338;SDS011;48278;52.704;6.536;2023-03-03T04:18:59;138.25;;;21.08;;
58338;SDS011;48278;52.704;6.536;2023-03-03T04:21:25;165.50;;;21.13;;
58338;SDS011;48278;52.704;6.536;2023-03-03T04:23:52;185.50;;;22.83;;
58338;SDS011;48278;52.704;6.536;2023-03-03T04:26:17;186.05;;;22.25;;
58338;SDS011;48278;52.704;6.536;2023-03-03T04:28:43;131.77;;;19.63;;
58338;SDS011;48278;52.704;6.536;2023-03-03T04:31:09;185.45;;;21.23;;
58338;SDS011;48278;52.704;6.536;2023-03-03T04:33:35;221.65;;;20.73;;
58338;SDS011;48278;52.704;6.536;2023-03-03T04:36:01;222.15;;;25.30;;
58338;SDS011;48278;52.704;6.536;2023-03-03T04:38:27;143.30;;;19.20;;
58338;SDS011;48278;52.704;6.536;2023-03-03T04:40:53;153.48;;;18.63;;
58338;SDS011;48278;52.704;6.536;2023-03-03T04:43:20;305.30;;;24.15;;
58338;SDS011;48278;52.704;6.536;2023-03-03T04:45:46;287.80;;;25.40;;
58338;SDS011;48278;52.704;6.536;2023-03-03T04:48:11;154.68;;;19.00;;
58338;SDS011;48278;52.704;6.536;2023-03-03T04:50:37;294.05;;;25.23;;
58338;SDS011;48278;52.704;6.536;2023-03-03T04:53:03;195.73;;;21.45;;
58338;SDS011;48278;52.704;6.536;2023-03-03T04:55:28;222.60;;;23.95;;
58338;SDS011;48278;52.704;6.536;2023-03-03T04:57:54;135.52;;;19.55;;
58338;SDS011;48278;52.704;6.536;2023-03-03T05:00:20;169.23;;;21.73;;
58338;SDS011;48278;52.704;6.536;2023-03-03T05:02:46;145.25;;;20.33;;
58338;SDS011;48278;52.704;6.536;2023-03-03T05:05:12;142.60;;;19.45;;
58338;SDS011;48278;52.704;6.536;2023-03-03T05:07:38;138.52;;;17.98;;
58338;SDS011;48278;52.704;6.536;2023-03-03T05:10:05;199.75;;;20.08;;
58338;SDS011;48278;52.704;6.536;2023-03-03T05:14:57;131.27;;;20.77;;
58338;SDS011;48278;52.704;6.536;2023-03-03T05:17:23;132.35;;;17.20;;
58338;SDS011;48278;52.704;6.536;2023-03-03T05:19:49;151.30;;;16.73;;
58338;SDS011;48278;52.704;6.536;2023-03-03T05:22:15;125.43;;;17.35;;
58338;SDS011;48278;52.704;6.536;2023-03-03T05:24:40;131.15;;;18.30;;
58338;SDS011;48278;52.704;6.536;2023-03-03T05:27:07;136.00;;;18.58;;
58338;SDS011;48278;52.704;6.536;2023-03-03T05:29:33;135.05;;;18.88;;
58338;SDS011;48278;52.704;6.536;2023-03-03T05:31:59;146.18;;;19.85;;
58338;SDS011;48278;52.704;6.536;2023-03-03T05:34:25;158.07;;;19.73;;
58338;SDS011;48278;52.704;6.536;2023-03-03T05:36:51;139.77;;;18.98;;
58338;SDS011;48278;52.704;6.536;2023-03-03T05:39:17;288.33;;;26.80;;
58338;SDS011;48278;52.704;6.536;2023-03-03T05:41:42;142.00;;;18.13;;
58338;SDS011;48278;52.704;6.536;2023-03-03T05:44:08;171.98;;;23.05;;
58338;SDS011;48278;52.704;6.536;2023-03-03T05:46:34;153.98;;;18.80;;
58338;SDS011;48278;52.704;6.536;2023-03-03T05:49:00;110.70;;;16.33;;
58338;SDS011;48278;52.704;6.536;2023-03-03T05:51:26;143.95;;;18.10;;
58338;SDS011;48278;52.704;6.536;2023-03-03T05:53:52;142.63;;;17.48;;
58338;SDS011;48278;52.704;6.536;2023-03-03T05:56:18;148.82;;;16.50;;
58338;SDS011;48278;52.704;6.536;2023-03-03T05:58:44;123.75;;;18.10;;
58338;SDS011;48278;52.704;6.536;2023-03-03T06:01:10;134.52;;;17.13;;
58338;SDS011;48278;52.704;6.536;2023-03-03T06:03:36;196.40;;;19.17;;
58338;SDS011;48278;52.704;6.536;2023-03-03T06:06:02;155.20;;;16.35;;
58338;SDS011;48278;52.704;6.536;2023-03-03T06:08:28;127.63;;;15.65;;
58338;SDS011;48278;52.704;6.536;2023-03-03T06:10:54;122.28;;;15.68;;
58338;SDS011;48278;52.704;6.536;2023-03-03T06:13:20;110.63;;;15.80;;
58338;SDS011;48278;52.704;6.536;2023-03-03T06:15:46;112.88;;;16.55;;
58338;SDS011;48278;52.704;6.536;2023-03-03T06:18:11;102.53;;;16.55;;
58338;SDS011;48278;52.704;6.536;2023-03-03T06:20:37;135.02;;;18.42;;
58338;SDS011;48278;52.704;6.536;2023-03-03T06:23:03;94.60;;;16.17;;
58338;SDS011;48278;52.704;6.536;2023-03-03T06:25:29;93.68;;;14.70;;
58338;SDS011;48278;52.704;6.536;2023-03-03T06:27:55;104.93;;;15.23;;
58338;SDS011;48278;52.704;6.536;2023-03-03T06:30:21;91.57;;;14.93;;
58338;SDS011;48278;52.704;6.536;2023-03-03T06:32:46;80.95;;;14.43;;
58338;SDS011;48278;52.704;6.536;2023-03-03T06:35:12;92.63;;;13.15;;
58338;SDS011;48278;52.704;6.536;2023-03-03T06:37:38;108.85;;;15.68;;
58338;SDS011;48278;52.704;6.536;2023-03-03T06:40:04;110.95;;;18.45;;
58338;SDS011;48278;52.704;6.536;2023-03-03T06:42:30;144.27;;;18.25;;
58338;SDS011;48278;52.704;6.536;2023-03-03T06:44:56;150.98;;;20.52;;
58338;SDS011;48278;52.704;6.536;2023-03-03T06:47:22;157.88;;;17.48;;
58338;SDS011;48278;52.704;6.536;2023-03-03T06:49:47;124.28;;;16.75;;
58338;SDS011;48278;52.704;6.536;2023-03-03T06:52:15;109.28;;;18.10;;
58338;SDS011;48278;52.704;6.536;2023-03-03T06:54:44;113.15;;;17.33;;
58338;SDS011;48278;52.704;6.536;2023-03-03T06:57:19;103.15;;;15.10;;
58338;SDS011;48278;52.704;6.536;2023-03-03T06:59:51;197.43;;;17.35;;
58338;SDS011;48278;52.704;6.536;2023-03-03T07:02:19;102.03;;;16.88;;
58338;SDS011;48278;52.704;6.536;2023-03-03T07:04:46;125.03;;;16.55;;
58338;SDS011;48278;52.704;6.536;2023-03-03T07:07:16;113.43;;;16.10;;
58338;SDS011;48278;52.704;6.536;2023-03-03T07:09:45;140.30;;;18.52;;
58338;SDS011;48278;52.704;6.536;2023-03-03T07:12:20;130.32;;;18.20;;
58338;SDS011;48278;52.704;6.536;2023-03-03T07:14:49;157.07;;;18.98;;
58338;SDS011;48278;52.704;6.536;2023-03-03T07:17:20;155.88;;;20.00;;
58338;SDS011;48278;52.704;6.536;2023-03-03T07:19:48;153.23;;;17.55;;
58338;SDS011;48278;52.704;6.536;2023-03-03T07:22:21;125.35;;;16.83;;
58338;SDS011;48278;52.704;6.536;2023-03-03T07:24:53;122.72;;;19.27;;
58338;SDS011;48278;52.704;6.536;2023-03-03T07:27:23;119.38;;;17.85;;
58338;SDS011;48278;52.704;6.536;2023-03-03T07:29:51;123.07;;;19.08;;
58338;SDS011;48278;52.704;6.536;2023-03-03T07:35:05;106.45;;;17.58;;
58338;SDS011;48278;52.704;6.536;2023-03-03T07:37:51;133.90;;;19.75;;
58338;SDS011;48278;52.704;6.536;2023-03-03T07:42:58;102.68;;;16.48;;
58338;SDS011;48278;52.704;6.536;2023-03-03T07:48:07;145.68;;;18.52;;
58338;SDS011;48278;52.704;6.536;2023-03-03T07:50:43;102.85;;;17.30;;
58338;SDS011;48278;52.704;6.536;2023-03-03T07:53:11;121.03;;;19.33;;
58338;SDS011;48278;52.704;6.536;2023-03-03T07:55:45;94.38;;;15.90;;
58338;SDS011;48278;52.704;6.536;2023-03-03T08:03:44;115.25;;;16.75;;
58338;SDS011;48278;52.704;6.536;2023-03-03T08:11:52;61.33;;;13.50;;
58338;SDS011;48278;52.704;6.536;2023-03-03T08:14:32;57.08;;;11.88;;
58338;SDS011;48278;52.704;6.536;2023-03-03T08:16:59;65.43;;;12.68;;
58338;SDS011;48278;52.704;6.536;2023-03-03T08:19:26;63.00;;;13.35;;
58338;SDS011;48278;52.704;6.536;2023-03-03T08:21:58;58.42;;;12.20;;
58338;SDS011;48278;52.704;6.536;2023-03-03T08:24:33;63.95;;;12.52;;
58338;SDS011;48278;52.704;6.536;2023-03-03T08:26:59;61.13;;;12.73;;
58338;SDS011;48278;52.704;6.536;2023-03-03T08:29:24;70.18;;;13.45;;
58338;SDS011;48278;52.704;6.536;2023-03-03T08:31:50;65.28;;;12.90;;
58338;SDS011;48278;52.704;6.536;2023-03-03T08:34:16;59.13;;;13.63;;
58338;SDS011;48278;52.704;6.536;2023-03-03T08:36:42;57.50;;;12.80;;
58338;SDS011;48278;52.704;6.536;2023-03-03T08:39:07;76.47;;;14.77;;
58338;SDS011;48278;52.704;6.536;2023-03-03T08:41:34;66.47;;;13.97;;
58338;SDS011;48278;52.704;6.536;2023-03-03T08:44:00;61.00;;;12.75;;
58338;SDS011;48278;52.704;6.536;2023-03-03T08:46:25;55.08;;;12.40;;
58338;SDS011;48278;52.704;6.536;2023-03-03T08:48:52;49.35;;;12.60;;
58338;SDS011;48278;52.704;6.536;2023-03-03T08:51:18;53.38;;;11.82;;
58338;SDS011;48278;52.704;6.536;2023-03-03T08:53:47;51.28;;;11.93;;
58338;SDS011;48278;52.704;6.536;2023-03-03T08:56:12;53.25;;;11.75;;
58338;SDS011;48278;52.704;6.536;2023-03-03T08:58:38;53.13;;;12.23;;
58338;SDS011;48278;52.704;6.536;2023-03-03T09:01:06;52.70;;;12.15;;
58338;SDS011;48278;52.704;6.536;2023-03-03T09:03:31;45.15;;;11.98;;
58338;SDS011;48278;52.704;6.536;2023-03-03T09:05:57;45.67;;;12.57;;
58338;SDS011;48278;52.704;6.536;2023-03-03T09:08:23;55.33;;;13.10;;
58338;SDS011;48278;52.704;6.536;2023-03-03T09:10:49;44.40;;;11.73;;
58338;SDS011;48278;52.704;6.536;2023-03-03T09:13:15;52.63;;;11.73;;
58338;SDS011;48278;52.704;6.536;2023-03-03T09:15:43;48.92;;;12.93;;
58338;SDS011;48278;52.704;6.536;2023-03-03T09:18:13;43.88;;;11.52;;
58338;SDS011;48278;52.704;6.536;2023-03-03T09:20:41;45.95;;;10.98;;
58338;SDS011;48278;52.704;6.536;2023-03-03T09:23:27;43.25;;;11.13;;
58338;SDS011;48278;52.704;6.536;2023-03-03T09:26:17;52.03;;;11.23;;
58338;SDS011;48278;52.704;6.536;2023-03-03T09:31:43;39.03;;;10.35;;
58338;SDS011;48278;52.704;6.536;2023-03-03T09:34:15;37.72;;;9.80;;
58338;SDS011;48278;52.704;6.536;2023-03-03T09:36:52;35.85;;;9.38;;
58338;SDS011;48278;52.704;6.536;2023-03-03T09:55:48;34.83;;;11.02;;
58338;SDS011;48278;52.704;6.536;2023-03-03T09:58:33;31.90;;;8.57;;
58338;SDS011;48278;52.704;6.536;2023-03-03T10:07:11;33.00;;;9.18;;
58338;SDS011;48278;52.704;6.536;2023-03-03T10:21:03;25.92;;;8.77;;
58338;SDS011;48278;52.704;6.536;2023-03-03T10:23:55;28.52;;;8.63;;
58338;SDS011;48278;52.704;6.536;2023-03-03T10:52:32;36.03;;;11.00;;
58338;SDS011;48278;52.704;6.536;2023-03-03T11:00:37;35.83;;;10.38;;
58338;SDS011;48278;52.704;6.536;2023-03-03T11:03:27;35.20;;;9.57;;
58338;SDS011;48278;52.704;6.536;2023-03-03T11:06:01;33.22;;;9.55;;
58338;SDS011;48278;52.704;6.536;2023-03-03T11:08:39;33.60;;;9.75;;
58338;SDS011;48278;52.704;6.536;2023-03-03T11:11:35;33.10;;;10.65;;
58338;SDS011;48278;52.704;6.536;2023-03-03T11:17:09;31.55;;;9.25;;
58338;SDS011;48278;52.704;6.536;2023-03-03T11:22:33;29.48;;;9.68;;
58338;SDS011;48278;52.704;6.536;2023-03-03T11:33:07;21.88;;;7.22;;
58338;SDS011;48278;52.704;6.536;2023-03-03T11:43:21;21.88;;;6.30;;
58338;SDS011;48278;52.704;6.536;2023-03-03T11:45:56;23.08;;;7.22;;
58338;SDS011;48278;52.704;6.536;2023-03-03T11:49:03;24.85;;;7.07;;
58338;SDS011;48278;52.704;6.536;2023-03-03T11:57:39;26.13;;;8.18;;
58338;SDS011;48278;52.704;6.536;2023-03-03T12:11:17;22.92;;;5.15;;
58338;SDS011;48278;52.704;6.536;2023-03-03T12:26:05;15.63;;;4.18;;
58338;SDS011;48278;52.704;6.536;2023-03-03T12:28:52;15.73;;;4.38;;
58338;SDS011;48278;52.704;6.536;2023-03-03T12:34:24;13.40;;;4.60;;
58338;SDS011;48278;52.704;6.536;2023-03-03T12:37:18;15.98;;;3.80;;
58338;SDS011;48278;52.704;6.536;2023-03-03T12:45:58;11.60;;;3.25;;
58338;SDS011;48278;52.704;6.536;2023-03-03T12:48:31;11.35;;;2.90;;
58338;SDS011;48278;52.704;6.536;2023-03-03T12:53:38;12.68;;;2.45;;
58338;SDS011;48278;52.704;6.536;2023-03-03T12:59:09;13.73;;;2.50;;
58338;SDS011;48278;52.704;6.536;2023-03-03T13:07:37;12.65;;;2.90;;
58338;SDS011;48278;52.704;6.536;2023-03-03T13:10:30;12.73;;;2.70;;
58338;SDS011;48278;52.704;6.536;2023-03-03T13:13:16;15.65;;;3.90;;
58338;SDS011;48278;52.704;6.536;2023-03-03T13:15:59;8.52;;;2.13;;
58338;SDS011;48278;52.704;6.536;2023-03-03T13:27:14;9.38;;;2.40;;
58338;SDS011;48278;52.704;6.536;2023-03-03T13:29:43;11.90;;;2.53;;
58338;SDS011;48278;52.704;6.536;2023-03-03T13:32:33;9.93;;;2.10;;
58338;SDS011;48278;52.704;6.536;2023-03-03T13:35:08;8.00;;;2.00;;
58338;SDS011;48278;52.704;6.536;2023-03-03T13:37:40;10.35;;;2.40;;
58338;SDS011;48278;52.704;6.536;2023-03-03T13:45:22;6.40;;;1.83;;
58338;SDS011;48278;52.704;6.536;2023-03-03T13:50:32;4.65;;;1.85;;
58338;SDS011;48278;52.704;6.536;2023-03-03T13:56:04;7.68;;;2.67;;
58338;SDS011;48278;52.704;6.536;2023-03-03T14:09:45;7.47;;;2.30;;
58338;SDS011;48278;52.704;6.536;2023-03-03T14:12:32;5.97;;;2.28;;
58338;SDS011;48278;52.704;6.536;2023-03-03T14:15:41;8.52;;;2.72;;
58338;SDS011;48278;52.704;6.536;2023-03-03T14:20:47;7.43;;;2.60;;
58338;SDS011;48278;52.704;6.536;2023-03-03T14:23:21;6.43;;;2.17;;
58338;SDS011;48278;52.704;6.536;2023-03-03T14:28:23;6.55;;;2.22;;
58338;SDS011;48278;52.704;6.536;2023-03-03T14:30:54;6.95;;;2.35;;
58338;SDS011;48278;52.704;6.536;2023-03-03T14:33:25;7.72;;;2.30;;
58338;SDS011;48278;52.704;6.536;2023-03-03T14:38:45;14.20;;;2.10;;
58338;SDS011;48278;52.704;6.536;2023-03-03T14:41:17;8.93;;;1.75;;
58338;SDS011;48278;52.704;6.536;2023-03-03T14:43:45;13.23;;;2.05;;
58338;SDS011;48278;52.704;6.536;2023-03-03T14:48:56;7.90;;;2.50;;
58338;SDS011;48278;52.704;6.536;2023-03-03T14:51:48;7.82;;;1.83;;
58338;SDS011;48278;52.704;6.536;2023-03-03T14:56:54;11.55;;;2.10;;
58338;SDS011;48278;52.704;6.536;2023-03-03T14:59:26;10.30;;;1.88;;
58338;SDS011;48278;52.704;6.536;2023-03-03T15:02:02;9.07;;;2.10;;
58338;SDS011;48278;52.704;6.536;2023-03-03T15:04:51;10.38;;;2.35;;
58338;SDS011;48278;52.704;6.536;2023-03-03T15:07:41;6.00;;;1.67;;
58338;SDS011;48278;52.704;6.536;2023-03-03T15:10:10;9.23;;;1.73;;
58338;SDS011;48278;52.704;6.536;2023-03-03T15:12:41;5.68;;;2.05;;
58338;SDS011;48278;52.704;6.536;2023-03-03T15:15:17;7.13;;;1.60;;
58338;SDS011;48278;52.704;6.536;2023-03-03T15:28:31;10.45;;;1.85;;
58338;SDS011;48278;52.704;6.536;2023-03-03T15:34:20;12.30;;;2.40;;
58338;SDS011;48278;52.704;6.536;2023-03-03T15:39:42;10.05;;;1.80;;
58338;SDS011;48278;52.704;6.536;2023-03-03T15:53:46;7.15;;;1.90;;
58338;SDS011;48278;52.704;6.536;2023-03-03T15:59:19;12.32;;;2.00;;
58338;SDS011;48278;52.704;6.536;2023-03-03T16:01:51;11.23;;;2.38;;
58338;SDS011;48278;52.704;6.536;2023-03-03T16:04:28;10.10;;;2.15;;
58338;SDS011;48278;52.704;6.536;2023-03-03T16:07:09;12.00;;;2.28;;
58338;SDS011;48278;52.704;6.536;2023-03-03T16:12:33;18.58;;;4.05;;
58338;SDS011;48278;52.704;6.536;2023-03-03T16:15:14;16.27;;;3.20;;
58338;SDS011;48278;52.704;6.536;2023-03-03T16:28:56;16.52;;;2.15;;
58338;SDS011;48278;52.704;6.536;2023-03-03T16:31:39;17.15;;;2.53;;
58338;SDS011;48278;52.704;6.536;2023-03-03T16:39:16;25.17;;;3.17;;
58338;SDS011;48278;52.704;6.536;2023-03-03T16:41:58;26.33;;;3.03;;
58338;SDS011;48278;52.704;6.536;2023-03-03T16:47:50;20.80;;;2.80;;
58338;SDS011;48278;52.704;6.536;2023-03-03T16:50:15;20.92;;;3.35;;
58338;SDS011;48278;52.704;6.536;2023-03-03T16:55:24;27.90;;;4.05;;
58338;SDS011;48278;52.704;6.536;2023-03-03T17:03:38;45.30;;;4.93;;
58338;SDS011;48278;52.704;6.536;2023-03-03T17:06:17;27.48;;;4.72;;
58338;SDS011;48278;52.704;6.536;2023-03-03T17:14:42;26.88;;;4.43;;
58338;SDS011;48278;52.704;6.536;2023-03-03T17:20:53;40.85;;;4.40;;
58338;SDS011;48278;52.704;6.536;2023-03-03T17:28:51;33.45;;;2.75;;
58338;SDS011;48278;52.704;6.536;2023-03-03T17:34:29;22.38;;;2.55;;
58338;SDS011;48278;52.704;6.536;2023-03-03T17:37:21;31.17;;;3.17;;
58338;SDS011;48278;52.704;6.536;2023-03-03T17:40:02;24.52;;;3.17;;
58338;SDS011;48278;52.704;6.536;2023-03-03T17:42:35;26.88;;;3.10;;
58338;SDS011;48278;52.704;6.536;2023-03-03T17:45:13;41.20;;;4.05;;
58338;SDS011;48278;52.704;6.536;2023-03-03T17:53:43;33.50;;;3.30;;
58338;SDS011;48278;52.704;6.536;2023-03-03T17:56:29;27.58;;;3.15;;
58338;SDS011;48278;52.704;6.536;2023-03-03T18:13:40;31.55;;;3.28;;
58338;SDS011;48278;52.704;6.536;2023-03-03T18:27:29;39.17;;;4.20;;
58338;SDS011;48278;52.704;6.536;2023-03-03T18:35:23;33.30;;;4.93;;
58338;SDS011;48278;52.704;6.536;2023-03-03T18:57:33;29.83;;;2.83;;
58338;SDS011;48278;52.704;6.536;2023-03-03T19:00:21;30.30;;;3.85;;
58338;SDS011;48278;52.704;6.536;2023-03-03T19:03:02;38.00;;;3.97;;
58338;SDS011;48278;52.704;6.536;2023-03-03T19:05:55;30.02;;;3.58;;
58338;SDS011;48278;52.704;6.536;2023-03-03T19:08:52;33.72;;;3.38;;
58338;SDS011;48278;52.704;6.536;2023-03-03T19:11:39;36.22;;;3.25;;
58338;SDS011;48278;52.704;6.536;2023-03-03T19:22:49;37.13;;;3.72;;
58338;SDS011;48278;52.704;6.536;2023-03-03T19:25:36;30.95;;;3.72;;
58338;SDS011;48278;52.704;6.536;2023-03-03T19:33:23;45.60;;;10.00;;
58338;SDS011;48278;52.704;6.536;2023-03-03T19:36:22;35.72;;;4.28;;
58338;SDS011;48278;52.704;6.536;2023-03-03T19:42:00;44.80;;;6.40;;
58338;SDS011;48278;52.704;6.536;2023-03-03T19:44:39;45.92;;;5.03;;
58338;SDS011;48278;52.704;6.536;2023-03-03T19:55:24;44.90;;;6.72;;
58338;SDS011;48278;52.704;6.536;2023-03-03T20:01:12;31.90;;;4.70;;
58338;SDS011;48278;52.704;6.536;2023-03-03T20:06:23;33.03;;;5.05;;
58338;SDS011;48278;52.704;6.536;2023-03-03T20:23:20;51.15;;;4.60;;
58338;SDS011;48278;52.704;6.536;2023-03-03T20:28:37;39.25;;;3.85;;
58338;SDS011;48278;52.704;6.536;2023-03-03T20:37:09;44.63;;;4.82;;
58338;SDS011;48278;52.704;6.536;2023-03-03T20:48:02;41.22;;;3.85;;
58338;SDS011;48278;52.704;6.536;2023-03-03T21:02:06;38.88;;;3.90;;
58338;SDS011;48278;52.704;6.536;2023-03-03T21:08:03;34.00;;;4.43;;
58338;SDS011;48278;52.704;6.536;2023-03-03T21:10:35;54.90;;;5.70;;
58338;SDS011;48278;52.704;6.536;2023-03-03T21:16:47;43.40;;;4.03;;
58338;SDS011;48278;52.704;6.536;2023-03-03T21:19:03;39.78;;;4.72;;
58338;SDS011;48278;52.704;6.536;2023-03-03T21:21:30;37.38;;;3.60;;
58338;SDS011;48278;52.704;6.536;2023-03-03T21:24:01;40.22;;;3.13;;
58338;SDS011;48278;52.704;6.536;2023-03-03T21:26:43;46.13;;;4.77;;
58338;SDS011;48278;52.704;6.536;2023-03-03T21:29:20;54.60;;;5.78;;
58338;SDS011;48278;52.704;6.536;2023-03-03T21:31:47;29.25;;;3.20;;
58338;SDS011;48278;52.704;6.536;2023-03-03T21:34:18;32.25;;;3.75;;
58338;SDS011;48278;52.704;6.536;2023-03-03T21:36:46;33.75;;;4.07;;
58338;SDS011;48278;52.704;6.536;2023-03-03T21:39:20;35.53;;;3.95;;
58338;SDS011;48278;52.704;6.536;2023-03-03T21:44:48;44.88;;;6.78;;
58338;SDS011;48278;52.704;6.536;2023-03-03T21:47:21;27.55;;;3.00;;
58338;SDS011;48278;52.704;6.536;2023-03-03T21:49:51;43.67;;;4.53;;
58338;SDS011;48278;52.704;6.536;2023-03-03T21:52:17;38.78;;;3.55;;
58338;SDS011;48278;52.704;6.536;2023-03-03T21:54:45;47.45;;;4.88;;
58338;SDS011;48278;52.704;6.536;2023-03-03T21:57:13;33.40;;;2.40;;
58338;SDS011;48278;52.704;6.536;2023-03-03T21:59:39;29.85;;;4.68;;
58338;SDS011;48278;52.704;6.536;2023-03-03T22:02:05;33.83;;;4.43;;
58338;SDS011;48278;52.704;6.536;2023-03-03T22:04:33;27.90;;;2.97;;
58338;SDS011;48278;52.704;6.536;2023-03-03T22:06:59;34.17;;;3.20;;
58338;SDS011;48278;52.704;6.536;2023-03-03T22:09:25;29.92;;;2.88;;
58338;SDS011;48278;52.704;6.536;2023-03-03T22:11:51;34.13;;;3.67;;
58338;SDS011;48278;52.704;6.536;2023-03-03T22:14:16;41.53;;;3.95;;
58338;SDS011;48278;52.704;6.536;2023-03-03T22:16:42;36.53;;;3.55;;
58338;SDS011;48278;52.704;6.536;2023-03-03T22:19:08;28.10;;;2.50;;